Time;durP1;ratioP1;P1;durP2;ratioP2;P2;SDS_P1;SDS_P2;PMS_P1;PMS_P2;Temp;Humidity;BMP_temperature;BMP_pressure;BME280_temperature;BME280_humidity;BME280_pressure;Samples;Min_cycle;Max_cycle;Signal;HPM_P1;HPM_P2
2022/05/14 04:03:53;;;;;;;4.00;3.70;;;9.00;99.90;;;;;;5727271;22;20250;-65
2022/05/14 04:06:20;;;;;;;3.27;2.97;;;9.00;99.90;;;;;;4998864;28;20184;-64
2022/05/14 04:08:45;;;;;;;2.92;2.63;;;9.00;99.90;;;;;;5001229;28;20213;-66
2022/05/14 04:11:11;;;;;;;2.67;2.53;;;9.10;99.90;;;;;;5000756;28;20179;-67
2022/05/14 04:13:37;;;;;;;3.10;2.90;;;9.10;99.90;;;;;;5000950;28;20229;-66
2022/05/14 04:16:03;;;;;;;3.80;3.50;;;9.10;99.90;;;;;;4983901;28;20167;-64
2022/05/14 04:18:29;;;;;;;3.50;2.90;;;9.20;99.90;;;;;;5002571;28;20211;-65
2022/05/14 04:20:58;;;;;;;3.83;2.80;;;9.20;99.90;;;;;;5002219;28;20199;-64
2022/05/14 04:23:26;;;;;;;3.88;3.58;;;9.20;99.90;;;;;;5000555;28;20207;-64
2022/05/14 04:25:52;;;;;;;2.50;2.30;;;9.20;99.90;;;;;;4995065;28;20175;-64
2022/05/14 04:28:19;;;;;;;2.38;1.90;;;9.30;99.90;;;;;;4994447;28;20209;-65
2022/05/14 04:30:46;;;;;;;2.25;2.08;;;9.40;99.90;;;;;;4994756;28;20175;-65
2022/05/14 04:33:12;;;;;;;6.40;3.88;;;9.70;99.90;;;;;;4995073;28;20191;-65
2022/05/14 04:35:39;;;;;;;4.60;4.20;;;10.00;99.90;;;;;;4996170;28;20171;-64
2022/05/14 04:38:04;;;;;;;4.15;3.60;;;10.40;99.90;;;;;;4995157;28;20630;-66
2022/05/14 04:40:30;;;;;;;3.03;2.80;;;10.80;99.90;;;;;;4994527;28;20184;-65
2022/05/14 04:42:56;;;;;;;3.80;3.50;;;11.00;99.90;;;;;;4994063;28;20928;-65
2022/05/14 04:45:21;;;;;;;3.27;2.57;;;11.30;99.90;;;;;;4994408;28;20171;-64
2022/05/14 04:47:47;;;;;;;3.60;2.77;;;11.50;99.90;;;;;;4994560;28;20180;-64
2022/05/14 04:50:14;;;;;;;3.50;3.20;;;11.50;99.90;;;;;;4994432;28;20208;-65
2022/05/14 04:52:40;;;;;;;4.03;2.65;;;11.50;99.90;;;;;;4994046;28;20183;-67
2022/05/14 04:55:07;;;;;;;6.40;2.20;;;11.60;99.90;;;;;;4994311;28;20200;-63
2022/05/14 04:57:33;;;;;;;2.85;2.65;;;11.80;99.90;;;;;;4993459;28;20184;-66
2022/05/14 04:59:59;;;;;;;1.93;1.70;;;11.80;99.90;;;;;;4993921;28;20208;-65
2022/05/14 05:05:12;;;;;;;3.67;3.37;;;12.20;99.90;;;;;;4994591;28;20199;-67
2022/05/14 05:07:37;;;;;;;2.03;1.93;;;12.40;99.90;;;;;;4976506;28;20429;-67
2022/05/14 05:10:04;;;;;;;2.40;2.20;;;12.60;99.90;;;;;;4994098;28;21023;-63
2022/05/14 05:12:30;;;;;;;2.60;2.40;;;12.70;99.90;;;;;;4993714;28;20179;-67
2022/05/14 05:14:55;;;;;;;4.43;2.87;;;12.80;99.90;;;;;;4994081;28;20502;-64
2022/05/14 05:17:21;;;;;;;2.17;1.80;;;12.90;99.90;;;;;;4993903;28;20633;-65
2022/05/14 05:19:47;;;;;;;8.33;2.97;;;12.90;99.90;;;;;;4994572;28;20566;-68
2022/05/14 05:22:12;;;;;;;2.60;2.40;;;13.00;99.90;;;;;;4994888;28;20637;-64
2022/05/14 05:24:38;;;;;;;2.50;2.40;;;13.10;99.90;;;;;;4993847;28;20201;-67
2022/05/14 05:27:04;;;;;;;2.80;2.10;;;13.20;99.90;;;;;;4976422;28;20179;-63
2022/05/14 05:29:30;;;;;;;2.30;2.20;;;13.10;99.90;;;;;;4994253;28;20669;-63
2022/05/14 05:31:56;;;;;;;2.57;2.37;;;13.00;99.90;;;;;;4993522;28;20448;-63
2022/05/14 05:34:22;;;;;;;2.20;2.10;;;12.90;99.90;;;;;;4993488;28;20953;-66
2022/05/14 05:36:47;;;;;;;2.33;2.20;;;13.00;99.90;;;;;;4993829;28;20168;-66
2022/05/14 05:39:13;;;;;;;2.53;2.40;;;13.10;99.90;;;;;;4994397;28;20540;-66
2022/05/14 05:41:39;;;;;;;2.20;2.10;;;13.10;99.90;;;;;;4993766;28;20205;-64
2022/05/14 05:44:05;;;;;;;7.60;3.50;;;13.10;99.90;;;;;;4993255;28;20240;-64
2022/05/14 05:46:33;;;;;;;3.03;2.60;;;13.10;99.90;;;;;;4993687;28;20177;-65
2022/05/14 05:48:59;;;;;;;2.10;2.00;;;13.30;99.90;;;;;;4993666;28;20881;-67
2022/05/14 05:51:25;;;;;;;2.00;1.90;;;13.40;99.90;;;;;;4993494;28;20445;-67
2022/05/14 05:56:46;;;;;;;2.30;2.10;;;13.50;99.90;;;;;;4993477;28;20184;-66
2022/05/14 05:59:13;;;;;;;2.57;2.37;;;13.60;99.90;;;;;;4993584;28;20500;-66
2022/05/14 06:01:38;;;;;;;2.87;2.63;;;13.70;99.90;;;;;;4993634;28;20504;-67
2022/05/14 06:04:04;;;;;;;2.17;2.07;;;13.70;99.90;;;;;;4993016;28;20533;-67
2022/05/14 06:06:30;;;;;;;2.40;2.20;;;13.80;99.90;;;;;;4993440;28;20218;-63
2022/05/14 06:08:55;;;;;;;2.80;2.60;;;13.80;99.90;;;;;;4994611;28;20263;-66
2022/05/14 06:11:21;;;;;;;2.97;2.40;;;14.00;99.90;;;;;;4997303;28;20496;-65
2022/05/14 06:13:47;;;;;;;2.80;2.60;;;14.10;99.90;;;;;;4996917;28;20533;-64
2022/05/14 06:16:14;;;;;;;1.90;1.80;;;14.20;99.90;;;;;;4997159;28;20596;-66
2022/05/14 06:18:42;;;;;;;2.13;2.03;;;14.30;99.90;;;;;;4996793;28;20273;-64
2022/05/14 06:21:09;;;;;;;3.37;2.20;;;14.50;99.90;;;;;;4979652;28;20477;-68
2022/05/14 06:23:35;;;;;;;2.90;2.70;;;14.60;99.90;;;;;;4993569;28;20552;-64
2022/05/14 06:26:01;;;;;;;5.20;2.50;;;14.60;99.90;;;;;;5004315;28;20476;-67
2022/05/14 06:28:26;;;;;;;1.83;1.77;;;14.60;99.90;;;;;;5014483;28;20818;-63
2022/05/14 06:30:53;;;;;;;2.07;1.97;;;14.70;99.90;;;;;;5002783;28;20410;-65
2022/05/14 06:33:19;;;;;;;2.00;1.90;;;14.90;99.90;;;;;;4996227;28;20648;-66
2022/05/14 06:35:45;;;;;;;3.13;2.10;;;15.10;99.90;;;;;;4996335;28;20464;-67
2022/05/14 06:38:12;;;;;;;2.07;1.97;;;15.20;99.90;;;;;;4996858;28;20403;-67
2022/05/14 06:40:39;;;;;;;2.47;2.27;;;15.40;99.90;;;;;;4996514;28;20414;-65
2022/05/14 06:43:04;;;;;;;2.37;2.23;;;15.60;99.90;;;;;;5009660;28;20448;-66
2022/05/14 06:45:31;;;;;;;2.53;2.33;;;15.70;99.90;;;;;;5015835;28;20422;-65
2022/05/14 06:47:57;;;;;;;2.33;2.13;;;15.90;99.90;;;;;;5015904;28;20181;-66
2022/05/14 06:50:25;;;;;;;2.00;1.90;;;16.10;99.90;;;;;;5002898;28;20461;-66
2022/05/14 06:52:54;;;;;;;2.40;2.20;;;16.20;99.90;;;;;;4962587;28;20398;-66
2022/05/14 06:55:22;;;;;;;2.30;2.10;;;16.20;99.90;;;;;;4977116;28;20460;-65
2022/05/14 06:57:50;;;;;;;1.90;1.80;;;16.30;99.90;;;;;;4976847;28;20419;-66
2022/05/14 07:00:16;;;;;;;2.53;2.37;;;16.40;99.90;;;;;;4968510;28;20623;-64
2022/05/14 07:02:43;;;;;;;2.80;2.53;;;16.40;99.90;;;;;;4995694;28;20944;-66
2022/05/14 07:07:53;;;;;;;1.97;1.87;;;16.60;99.90;;;;;;4994537;28;20478;-66
2022/05/14 07:10:19;;;;;;;2.00;1.90;;;16.80;99.90;;;;;;4994347;28;20458;-64
2022/05/14 07:12:44;;;;;;;1.87;1.77;;;16.90;99.90;;;;;;4979163;28;20186;-67
2022/05/14 07:15:12;;;;;;;2.37;2.23;;;17.10;99.90;;;;;;4974704;28;20232;-66
2022/05/14 07:17:38;;;;;;;2.30;2.20;;;17.20;99.90;;;;;;4974908;28;20532;-66
2022/05/14 07:20:05;;;;;;;3.63;2.50;;;17.30;99.90;;;;;;4974019;28;20901;-65
2022/05/14 07:22:31;;;;;;;4.63;1.70;;;17.40;99.90;;;;;;4975660;28;20440;-65
2022/05/14 07:24:57;;;;;;;2.37;2.27;;;17.50;99.90;;;;;;5000751;28;20586;-64
2022/05/14 07:27:22;;;;;;;2.47;2.27;;;17.80;99.90;;;;;;4986744;28;20177;-67
2022/05/14 07:29:48;;;;;;;2.10;2.00;;;18.10;99.90;;;;;;4987079;28;20200;-66
2022/05/14 07:32:16;;;;;;;1.63;1.53;;;18.40;99.90;;;;;;4988036;28;20197;-65
2022/05/14 07:34:42;;;;;;;1.80;1.70;;;18.60;99.90;;;;;;4980477;28;20678;-65
2022/05/14 07:37:19;;;;;;;1.87;1.77;;;18.90;99.90;;;;;;4992761;28;20894;-63
2022/05/14 07:39:50;;;;;;;1.70;1.60;;;19.30;99.50;;;;;;4982949;28;20438;-66
2022/05/14 07:42:23;;;;;;;3.53;1.63;;;19.80;98.50;;;;;;5002036;28;20415;-62
2022/05/14 07:44:52;;;;;;;1.67;1.57;;;20.60;97.00;;;;;;5001090;28;20441;-62
2022/05/14 07:47:18;;;;;;;1.63;1.53;;;21.80;95.70;;;;;;4999375;28;20423;-65
2022/05/14 07:49:47;;;;;;;1.40;1.30;;;23.50;93.00;;;;;;4991740;28;20794;-64
2022/05/14 07:52:14;;;;;;;2.13;1.67;;;25.10;90.50;;;;;;4993152;28;20422;-63
2022/05/14 07:54:40;;;;;;;2.17;2.07;;;26.60;84.70;;;;;;4958568;28;20441;-64
2022/05/14 07:57:06;;;;;;;1.67;1.57;;;28.00;78.70;;;;;;4972220;28;20423;-65
2022/05/14 07:59:35;;;;;;;2.20;2.10;;;29.40;74.70;;;;;;4981274;28;20405;-66
2022/05/14 08:02:05;;;;;;;3.00;1.63;;;30.50;66.90;;;;;;4994741;28;20471;-65
2022/05/14 08:04:31;;;;;;;1.47;1.47;;;31.00;63.80;;;;;;4992685;28;20466;-65
2022/05/14 08:06:57;;;;;;;1.77;1.50;;;31.60;61.10;;;;;;4987099;28;20442;-63
2022/05/14 08:09:22;;;;;;;1.30;1.20;;;32.20;59.40;;;;;;4982643;28;20466;-65
2022/05/14 08:11:48;;;;;;;1.03;1.03;;;33.00;57.40;;;;;;4993310;28;20266;-64
2022/05/14 08:14:14;;;;;;;1.60;1.50;;;33.40;56.10;;;;;;4992425;28;20200;-64
2022/05/14 08:16:40;;;;;;;1.70;1.60;;;33.70;55.00;;;;;;4994885;28;20532;-63
2022/05/14 08:19:05;;;;;;;1.47;1.37;;;33.60;53.30;;;;;;4978841;28;20188;-64
2022/05/14 08:24:36;;;;;;;1.60;1.40;;;33.80;52.80;;;;;;4922386;28;20674;-66
2022/05/14 08:27:05;;;;;;;1.67;1.57;;;33.80;51.70;;;;;;4979032;28;20485;-65
2022/05/14 08:29:32;;;;;;;2.80;1.73;;;33.30;51.50;;;;;;4976087;28;20786;-66
2022/05/14 08:31:57;;;;;;;1.70;1.60;;;33.00;51.10;;;;;;4974155;28;20416;-65
2022/05/14 08:34:23;;;;;;;3.40;2.07;;;33.20;52.60;;;;;;4987573;28;20465;-67
2022/05/14 08:36:49;;;;;;;1.63;1.57;;;33.60;53.00;;;;;;4991573;28;20660;-65
2022/05/14 08:39:16;;;;;;;1.70;1.50;;;33.80;52.00;;;;;;4975609;28;20192;-66
2022/05/14 08:41:44;;;;;;;2.10;2.00;;;34.00;52.10;;;;;;4984375;28;20547;-64
2022/05/14 08:44:25;;;;;;;1.90;1.80;;;34.00;50.90;;;;;;4986778;28;20478;-67
2022/05/14 08:47:03;;;;;;;1.77;1.50;;;34.10;51.80;;;;;;4994267;28;20451;-66
2022/05/14 08:49:40;;;;;;;1.90;1.80;;;34.70;52.40;;;;;;4978795;28;20474;-65
2022/05/14 08:52:13;;;;;;;1.60;1.50;;;35.30;50.00;;;;;;4975436;28;20435;-66
2022/05/14 08:54:38;;;;;;;1.90;1.80;;;35.70;50.30;;;;;;4975034;28;20467;-63
2022/05/14 08:57:28;;;;;;;1.20;1.20;;;35.80;48.10;;;;;;4974665;28;20408;-62
2022/05/14 08:59:55;;;;;;;2.37;1.70;;;35.70;47.70;;;;;;4981123;28;20184;-62
2022/05/14 09:02:30;;;;;;;1.73;1.63;;;35.60;47.00;;;;;;4989135;28;20437;-62
2022/05/14 09:04:59;;;;;;;11.90;2.20;;;35.50;47.20;;;;;;4984503;28;20476;-63
2022/05/14 09:07:25;;;;;;;5.27;2.10;;;35.60;47.90;;;;;;4974427;28;20930;-65
2022/05/14 09:09:55;;;;;;;3.13;1.70;;;35.80;47.10;;;;;;4980388;28;20458;-62
2022/05/14 09:12:27;;;;;;;1.47;1.47;;;35.60;47.80;;;;;;4992344;28;20176;-65
2022/05/14 09:15:12;;;;;;;1.80;1.70;;;35.70;47.80;;;;;;4975004;28;20475;-66
2022/05/14 09:17:38;;;;;;;1.97;1.73;;;35.60;47.50;;;;;;4977813;28;20478;-63
2022/05/14 09:20:05;;;;;;;1.50;1.50;;;35.50;47.20;;;;;;4972924;28;20511;-62
2022/05/14 09:22:52;;;;;;;1.80;1.70;;;35.60;48.00;;;;;;4973067;28;20412;-63
2022/05/14 09:25:26;;;;;;;1.93;1.83;;;35.30;46.10;;;;;;4972636;28;20408;-63
2022/05/14 09:27:57;;;;;;;1.83;1.73;;;35.20;47.60;;;;;;4987386;28;20821;-64
2022/05/14 09:30:36;;;;;;;2.00;1.90;;;35.20;47.00;;;;;;4991604;28;20450;-62
2022/05/14 09:33:03;;;;;;;1.70;1.60;;;34.80;47.70;;;;;;4992314;28;20809;-63
2022/05/14 09:35:34;;;;;;;1.80;1.70;;;35.10;47.60;;;;;;4976523;28;20519;-63
2022/05/14 09:38:22;;;;;;;2.50;2.40;;;35.00;47.10;;;;;;4984650;28;20781;-64
2022/05/14 09:40:48;;;;;;;2.00;1.90;;;34.60;47.80;;;;;;4964345;28;20525;-64
2022/05/14 09:43:16;;;;;;;4.30;1.73;;;34.50;48.30;;;;;;4972900;28;20506;-61
2022/05/14 09:46:00;;;;;;;4.00;2.30;;;34.50;47.50;;;;;;4976917;28;20172;-62
2022/05/14 09:48:51;;;;;;;2.20;2.00;;;34.60;47.40;;;;;;4982065;28;20541;-64
2022/05/14 09:51:38;;;;;;;2.70;1.97;;;34.20;46.70;;;;;;4981017;28;20426;-63
2022/05/14 09:54:09;;;;;;;1.97;1.80;;;33.80;47.60;;;;;;4994503;28;20534;-65
2022/05/14 09:56:41;;;;;;;2.20;2.10;;;33.60;48.30;;;;;;4994942;28;20378;-63
2022/05/14 09:59:32;;;;;;;1.97;1.87;;;33.60;47.70;;;;;;4984127;28;21212;-63
2022/05/14 10:02:27;;;;;;;1.80;1.70;;;33.60;48.10;;;;;;4975589;28;20490;-62
2022/05/14 10:04:55;;;;;;;1.87;1.77;;;34.10;48.70;;;;;;4980186;28;20469;-63
2022/05/14 10:07:35;;;;;;;2.10;2.00;;;34.10;48.00;;;;;;4988849;28;20826;-64
2022/05/14 10:10:13;;;;;;;2.00;1.90;;;34.10;47.50;;;;;;4976868;28;20810;-63
2022/05/14 10:12:48;;;;;;;1.90;1.80;;;33.40;47.50;;;;;;4976792;28;20427;-66
2022/05/14 10:15:38;;;;;;;1.90;1.80;;;33.20;48.50;;;;;;4976505;28;20494;-64
2022/05/14 10:18:15;;;;;;;2.13;1.97;;;32.90;48.40;;;;;;4976742;28;20455;-61
2022/05/14 10:20:56;;;;;;;1.80;1.70;;;32.50;49.20;;;;;;4976751;28;20786;-64
2022/05/14 10:26:49;;;;;;;1.80;1.70;;;32.80;48.10;;;;;;4995719;28;20394;-62
2022/05/14 10:29:56;;;;;;;1.77;1.60;;;32.50;47.60;;;;;;4996375;28;20998;-66
2022/05/14 10:32:26;;;;;;;2.30;2.10;;;31.90;49.20;;;;;;4989486;28;20784;-64
2022/05/14 10:34:58;;;;;;;2.13;2.00;;;31.60;51.70;;;;;;4991105;28;20789;-60
2022/05/14 10:37:32;;;;;;;1.70;1.60;;;31.40;49.90;;;;;;4992508;28;20415;-65
2022/05/14 10:40:07;;;;;;;1.50;1.40;;;31.30;50.90;;;;;;4983755;28;20423;-62
2022/05/14 10:42:41;;;;;;;2.33;1.60;;;31.30;50.10;;;;;;4982022;28;20418;-63
2022/05/14 10:45:18;;;;;;;1.30;1.20;;;31.40;50.10;;;;;;4995132;28;20446;-62
2022/05/14 10:48:18;;;;;;;1.70;1.40;;;31.30;49.60;;;;;;4995470;28;20445;-63
2022/05/14 10:50:43;;;;;;;1.57;1.30;;;31.40;49.20;;;;;;4988304;28;20427;-61
2022/05/14 10:53:10;;;;;;;1.40;1.30;;;31.40;50.90;;;;;;4975254;28;20435;-59
2022/05/14 10:56:01;;;;;;;1.67;1.40;;;31.50;50.80;;;;;;4974384;28;20555;-61
2022/05/14 10:58:36;;;;;;;2.90;1.67;;;31.90;51.20;;;;;;4994750;28;20442;-63
2022/05/14 11:01:28;;;;;;;1.20;1.20;;;32.30;49.20;;;;;;4993997;28;20494;-63
2022/05/14 11:04:06;;;;;;;1.20;1.20;;;32.00;48.80;;;;;;4988790;28;20444;-66
2022/05/14 11:06:47;;;;;;;2.30;1.10;;;32.00;49.20;;;;;;5004927;28;20489;-62
2022/05/14 11:09:18;;;;;;;1.17;1.17;;;31.70;49.40;;;;;;5007980;28;21797;-62
2022/05/14 11:11:55;;;;;;;2.10;1.90;;;31.00;49.90;;;;;;5000239;28;20415;-63
2022/05/14 11:14:21;;;;;;;1.93;1.47;;;30.30;49.90;;;;;;5008145;28;20426;-63
2022/05/14 11:16:50;;;;;;;1.47;1.20;;;29.40;50.30;;;;;;5008668;28;20457;-64
2022/05/14 11:19:30;;;;;;;1.40;1.30;;;28.60;51.10;;;;;;5007711;28;20470;-65
2022/05/14 11:21:57;;;;;;;1.37;1.27;;;27.80;51.20;;;;;;4999946;28;20496;-62
2022/05/14 11:24:40;;;;;;;3.33;1.30;;;26.80;53.40;;;;;;5004882;28;20532;-63
2022/05/14 11:27:07;;;;;;;3.00;1.53;;;25.90;55.00;;;;;;5000498;28;20400;-65
2022/05/14 11:29:50;;;;;;;1.27;1.17;;;25.40;58.20;;;;;;5007633;28;20403;-62
2022/05/14 11:32:19;;;;;;;1.67;1.07;;;25.10;57.40;;;;;;4988394;28;20429;-64
2022/05/14 11:34:59;;;;;;;1.27;1.20;;;24.90;57.80;;;;;;4981617;28;20619;-66
2022/05/14 11:37:46;;;;;;;1.20;1.10;;;24.50;57.30;;;;;;4988237;28;20519;-63
2022/05/14 11:40:21;;;;;;;1.30;1.20;;;24.20;57.50;;;;;;4996057;28;20441;-63
2022/05/14 11:42:50;;;;;;;1.57;1.07;;;24.00;58.40;;;;;;4987077;28;20442;-66
2022/05/14 11:45:28;;;;;;;2.00;0.90;;;23.80;58.00;;;;;;4994262;28;20425;-64
2022/05/14 11:48:20;;;;;;;0.90;0.90;;;23.80;59.70;;;;;;4994153;28;20446;-67
2022/05/14 11:50:53;;;;;;;1.13;1.07;;;23.80;58.70;;;;;;4983284;28;20442;-71
2022/05/14 11:53:40;;;;;;;1.03;1.00;;;23.80;57.00;;;;;;4978312;28;20475;-70
2022/05/14 11:56:26;;;;;;;2.70;1.03;;;23.70;58.00;;;;;;4975454;28;20867;-69
2022/05/14 11:59:02;;;;;;;0.90;0.90;;;23.60;57.50;;;;;;4975834;28;20462;-69
2022/05/14 12:01:33;;;;;;;1.70;1.23;;;23.60;58.00;;;;;;4987759;28;21035;-63
2022/05/14 12:04:01;;;;;;;3.37;1.23;;;23.50;59.10;;;;;;4974555;28;20435;-64
2022/05/14 12:06:57;;;;;;;1.00;0.90;;;23.50;59.80;;;;;;4987985;28;20485;-63
2022/05/14 12:09:39;;;;;;;2.30;0.80;;;23.70;59.60;;;;;;4973862;28;20431;-61
2022/05/14 12:12:36;;;;;;;0.80;0.60;;;23.80;58.80;;;;;;4981187;28;20447;-62
2022/05/14 12:15:10;;;;;;;0.73;0.73;;;23.80;57.50;;;;;;4988632;28;20449;-62
2022/05/14 12:17:37;;;;;;;1.07;1.07;;;23.70;57.40;;;;;;4982403;28;20402;-62
2022/05/14 12:20:04;;;;;;;2.30;1.07;;;23.60;57.00;;;;;;4977300;28;20564;-62
2022/05/14 12:22:30;;;;;;;1.90;1.27;;;23.50;56.30;;;;;;4988820;28;20430;-62
2022/05/14 12:25:07;;;;;;;2.10;0.97;;;23.60;56.50;;;;;;4988123;28;20483;-62
2022/05/14 12:27:43;;;;;;;0.90;0.90;;;23.50;57.00;;;;;;4992499;28;20186;-62
2022/05/14 12:33:20;;;;;;;1.47;0.90;;;23.40;56.60;;;;;;4992839;28;20445;-62
2022/05/14 12:36:05;;;;;;;0.90;0.90;;;23.40;58.70;;;;;;4993378;28;20438;-62
2022/05/14 12:38:39;;;;;;;1.10;1.10;;;23.40;59.90;;;;;;4977595;28;20427;-62
2022/05/14 12:41:07;;;;;;;3.20;1.40;;;23.40;58.70;;;;;;4980630;28;20431;-62
2022/05/14 12:43:33;;;;;;;1.30;1.07;;;23.50;59.20;;;;;;4974338;28;20474;-61
2022/05/14 12:46:10;;;;;;;3.87;1.00;;;23.60;60.30;;;;;;4990851;28;20500;-62
2022/05/14 12:48:50;;;;;;;1.23;1.13;;;23.80;59.70;;;;;;4986811;28;20198;-61
2022/05/14 12:51:23;;;;;;;1.17;1.07;;;23.90;59.40;;;;;;4973689;28;20396;-61
2022/05/14 12:53:50;;;;;;;0.93;0.87;;;24.00;58.10;;;;;;4973922;28;20494;-62
2022/05/14 12:56:18;;;;;;;1.03;0.93;;;24.00;55.90;;;;;;4990449;28;20438;-62
2022/05/14 12:58:45;;;;;;;0.97;0.97;;;24.00;55.70;;;;;;4991499;28;20447;-62
2022/05/14 13:01:12;;;;;;;1.10;1.00;;;23.90;55.90;;;;;;4992851;28;20453;-62
2022/05/14 13:03:43;;;;;;;0.93;0.93;;;23.70;57.40;;;;;;4992176;28;20443;-62
2022/05/14 13:06:16;;;;;;;0.80;0.70;;;23.70;56.10;;;;;;4979767;28;20544;-63
2022/05/14 13:08:48;;;;;;;4.33;1.20;;;23.70;56.50;;;;;;4992006;28;20431;-62
2022/05/14 13:11:20;;;;;;;0.80;0.80;;;23.80;56.60;;;;;;4980615;28;20435;-61
2022/05/14 13:13:48;;;;;;;2.33;1.07;;;23.80;55.70;;;;;;4974008;28;20817;-61
2022/05/14 13:16:25;;;;;;;0.83;0.83;;;23.60;56.00;;;;;;4979734;28;20426;-62
2022/05/14 13:18:52;;;;;;;1.43;1.10;;;23.60;56.10;;;;;;4982311;28;20425;-62
2022/05/14 13:21:19;;;;;;;2.07;1.00;;;23.60;55.90;;;;;;4992317;28;20421;-62
2022/05/14 13:23:59;;;;;;;0.70;0.70;;;23.60;57.00;;;;;;4992494;28;20421;-61
2022/05/14 13:26:31;;;;;;;2.93;1.23;;;23.60;56.70;;;;;;4992929;28;20416;-62
2022/05/14 13:29:11;;;;;;;1.33;1.00;;;23.60;56.30;;;;;;4992623;28;20473;-62
2022/05/14 13:31:37;;;;;;;0.97;0.97;;;23.60;58.20;;;;;;4984899;28;20447;-63
2022/05/14 13:37:11;;;;;;;0.93;0.90;;;23.70;57.20;;;;;;4976933;28;20190;-62
2022/05/14 13:39:50;;;;;;;1.40;1.10;;;23.80;57.30;;;;;;4990691;28;20549;-62
2022/05/14 13:42:23;;;;;;;1.23;0.83;;;23.80;56.30;;;;;;4964815;28;20485;-63
2022/05/14 13:45:10;;;;;;;0.70;0.70;;;23.80;55.40;;;;;;4974419;28;20398;-62
2022/05/14 13:47:40;;;;;;;1.33;1.23;;;23.80;55.30;;;;;;4974706;28;20411;-62
2022/05/14 13:50:06;;;;;;;1.20;1.07;;;23.80;55.50;;;;;;4974444;28;20399;-63
2022/05/14 13:52:35;;;;;;;0.87;0.87;;;23.70;56.30;;;;;;4983948;28;20398;-61
2022/05/14 13:55:08;;;;;;;1.80;0.77;;;23.70;56.90;;;;;;4993342;28;20420;-65
2022/05/14 13:57:35;;;;;;;4.00;1.10;;;23.60;55.70;;;;;;4993696;28;20908;-63
2022/05/14 14:00:20;;;;;;;0.90;0.90;;;23.60;56.60;;;;;;4993647;28;20474;-63
2022/05/14 14:03:01;;;;;;;0.90;0.90;;;23.70;55.50;;;;;;4993136;28;20965;-63
2022/05/14 14:05:27;;;;;;;0.80;0.80;;;23.70;55.20;;;;;;4993488;28;20439;-63
2022/05/14 14:07:53;;;;;;;1.20;1.00;;;23.70;57.20;;;;;;4983262;28;20407;-62
2022/05/14 14:10:27;;;;;;;0.93;0.93;;;23.70;59.10;;;;;;4974298;28;20482;-63
2022/05/14 14:12:52;;;;;;;1.00;0.90;;;23.70;56.00;;;;;;4973835;28;20184;-63
2022/05/14 14:15:18;;;;;;;2.43;1.47;;;23.70;55.30;;;;;;4974154;28;20942;-63
2022/05/14 14:17:45;;;;;;;3.20;1.50;;;23.70;56.40;;;;;;4956826;28;20524;-63
2022/05/14 14:20:12;;;;;;;0.93;0.87;;;23.60;55.90;;;;;;4974137;28;20485;-62
2022/05/14 14:22:38;;;;;;;1.57;1.00;;;23.60;55.30;;;;;;4988498;28;20404;-62
2022/05/14 14:25:04;;;;;;;1.80;1.20;;;23.60;55.30;;;;;;4993350;28;20814;-62
2022/05/14 14:27:30;;;;;;;0.80;0.80;;;23.50;55.50;;;;;;4993670;28;20483;-62
2022/05/14 14:29:57;;;;;;;1.07;0.93;;;23.50;55.80;;;;;;4994689;28;20437;-63
2022/05/14 14:32:25;;;;;;;0.70;0.70;;;23.50;55.60;;;;;;4996687;28;20468;-63
2022/05/14 14:34:51;;;;;;;1.17;1.03;;;23.60;56.90;;;;;;4996618;28;20408;-62
2022/05/14 14:37:17;;;;;;;1.40;1.00;;;23.60;55.60;;;;;;4982303;28;20428;-63
2022/05/14 14:39:44;;;;;;;1.93;1.37;;;23.60;54.60;;;;;;4977372;28;20685;-63
2022/05/14 14:42:12;;;;;;;0.90;0.90;;;23.60;54.10;;;;;;4976951;28;20419;-63
2022/05/14 14:44:39;;;;;;;1.27;1.17;;;23.60;53.90;;;;;;4977137;28;20792;-63
2022/05/14 14:47:05;;;;;;;1.17;1.00;;;23.60;52.60;;;;;;4977427;28;20748;-63
2022/05/14 14:49:32;;;;;;;0.80;0.80;;;23.60;52.40;;;;;;4977099;28;20418;-63
2022/05/14 14:51:58;;;;;;;1.00;1.00;;;23.50;53.40;;;;;;4990788;28;20410;-62
2022/05/14 14:54:24;;;;;;;1.93;1.80;;;23.60;52.90;;;;;;4996334;28;20512;-62
2022/05/14 14:56:49;;;;;;;1.43;1.33;;;23.50;53.10;;;;;;4996640;28;20190;-62
2022/05/14 14:59:15;;;;;;;0.90;0.90;;;23.50;54.50;;;;;;4996238;28;20990;-63
2022/05/14 15:01:49;;;;;;;0.97;0.93;;;23.50;54.90;;;;;;4996041;28;20169;-62
2022/05/14 15:04:26;;;;;;;1.03;1.03;;;23.50;55.40;;;;;;4995744;28;20193;-63
2022/05/14 15:06:54;;;;;;;3.27;1.00;;;23.60;54.70;;;;;;4980611;28;20474;-61
2022/05/14 15:09:20;;;;;;;0.80;0.80;;;23.50;53.60;;;;;;4976812;28;20412;-62
2022/05/14 15:11:46;;;;;;;0.90;0.90;;;23.50;53.60;;;;;;4976454;28;20499;-63
2022/05/14 15:14:15;;;;;;;0.80;0.80;;;23.50;52.80;;;;;;4975882;28;20534;-62
2022/05/14 15:16:41;;;;;;;0.80;0.80;;;23.50;52.60;;;;;;4976691;28;20400;-63
2022/05/14 15:19:07;;;;;;;1.30;1.07;;;23.50;52.90;;;;;;4976630;28;20815;-62
2022/05/14 15:21:33;;;;;;;0.77;0.77;;;23.40;53.50;;;;;;4991550;28;20176;-62
2022/05/14 15:23:58;;;;;;;0.90;0.90;;;23.40;53.40;;;;;;4995824;28;20552;-62
2022/05/14 15:26:24;;;;;;;0.90;0.90;;;23.40;54.30;;;;;;4995523;28;20167;-62
2022/05/14 15:28:51;;;;;;;1.10;1.00;;;23.40;54.30;;;;;;4996083;28;20529;-62
2022/05/14 15:31:26;;;;;;;1.20;1.10;;;23.40;54.00;;;;;;4995794;28;20680;-62
2022/05/14 15:33:53;;;;;;;1.10;0.80;;;23.40;52.60;;;;;;4995575;28;20404;-62
2022/05/14 15:36:19;;;;;;;0.90;0.90;;;23.40;52.80;;;;;;4978759;28;20399;-63
2022/05/14 15:38:45;;;;;;;0.90;0.90;;;23.40;53.30;;;;;;4974757;28;20450;-63
2022/05/14 15:41:11;;;;;;;1.30;0.87;;;23.30;52.60;;;;;;4975626;28;20503;-63
2022/05/14 15:43:37;;;;;;;1.00;1.00;;;23.30;51.80;;;;;;4975458;28;20285;-63
2022/05/14 15:46:07;;;;;;;1.23;0.90;;;23.20;52.10;;;;;;4976155;28;20172;-63
2022/05/14 15:49:00;;;;;;;1.13;1.13;;;23.20;52.30;;;;;;4976263;28;20418;-63
2022/05/14 15:51:26;;;;;;;0.80;0.80;;;23.20;52.30;;;;;;4978039;28;20431;-62
2022/05/14 15:53:54;;;;;;;1.73;1.13;;;23.20;52.50;;;;;;4994980;28;20917;-62
2022/05/14 15:56:29;;;;;;;0.97;0.97;;;23.10;53.80;;;;;;4995575;28;20772;-62
2022/05/14 15:58:55;;;;;;;1.20;1.10;;;23.10;53.60;;;;;;4995518;28;20450;-62
2022/05/14 16:01:21;;;;;;;1.47;0.90;;;23.10;54.50;;;;;;4995337;28;20450;-62
2022/05/14 16:03:47;;;;;;;1.10;1.10;;;23.10;54.30;;;;;;4994778;28;20792;-63
2022/05/14 16:06:15;;;;;;;0.70;0.70;;;23.10;54.70;;;;;;4986116;28;20513;-62
2022/05/14 16:08:42;;;;;;;2.60;1.40;;;23.10;54.00;;;;;;4957065;28;20202;-62
2022/05/14 16:16:36;;;;;;;1.40;1.30;;;23.00;53.90;;;;;;4973889;28;20456;-62
2022/05/14 16:19:04;;;;;;;1.90;0.80;;;23.10;53.30;;;;;;4973919;28;20434;-62
2022/05/14 16:21:30;;;;;;;0.90;0.90;;;23.00;52.30;;;;;;4986685;28;20446;-62
2022/05/14 16:23:57;;;;;;;1.30;0.87;;;23.00;52.60;;;;;;4994513;28;20513;-64
2022/05/14 16:26:26;;;;;;;1.87;1.07;;;23.00;52.70;;;;;;4994913;28;20394;-63
2022/05/14 16:28:52;;;;;;;1.00;1.00;;;23.00;52.50;;;;;;4994898;28;20391;-63
2022/05/14 16:31:22;;;;;;;1.00;1.00;;;22.90;52.80;;;;;;4994764;28;20491;-62
2022/05/14 16:33:48;;;;;;;1.10;1.10;;;22.90;53.00;;;;;;4993992;28;20437;-62
2022/05/14 16:36:16;;;;;;;0.73;0.70;;;22.90;53.20;;;;;;4981403;28;20424;-62
2022/05/14 16:38:43;;;;;;;0.77;0.77;;;22.80;53.30;;;;;;4975157;28;20630;-62
2022/05/14 16:41:10;;;;;;;1.63;1.20;;;22.80;54.00;;;;;;4975621;28;20390;-62
2022/05/14 16:43:36;;;;;;;2.20;1.20;;;22.70;53.90;;;;;;4992179;28;20439;-62
2022/05/14 16:46:03;;;;;;;1.00;1.00;;;22.60;54.30;;;;;;4995088;28;20494;-63
2022/05/14 16:48:30;;;;;;;1.70;0.97;;;22.60;54.40;;;;;;4994497;28;20196;-63
2022/05/14 16:50:56;;;;;;;0.80;0.80;;;22.60;54.40;;;;;;4994456;28;20476;-62
2022/05/14 16:53:22;;;;;;;1.00;1.00;;;22.50;54.50;;;;;;4993167;28;20431;-63
2022/05/14 16:55:49;;;;;;;1.20;1.10;;;22.60;54.00;;;;;;4992455;28;20415;-62
2022/05/14 16:58:15;;;;;;;1.37;1.30;;;22.50;54.00;;;;;;4991505;28;20414;-62
2022/05/14 17:00:45;;;;;;;1.00;0.80;;;22.50;54.50;;;;;;4992341;28;20473;-62
2022/05/14 17:03:11;;;;;;;1.23;0.80;;;22.50;54.50;;;;;;4991829;28;20460;-61
2022/05/14 17:05:39;;;;;;;0.90;0.90;;;22.50;53.30;;;;;;4993049;28;20429;-62
2022/05/14 17:08:06;;;;;;;1.00;1.00;;;22.50;53.40;;;;;;4976903;28;20424;-63
2022/05/14 17:10:35;;;;;;;1.17;1.07;;;22.50;53.50;;;;;;4994281;28;20447;-62
2022/05/14 17:13:01;;;;;;;1.80;1.20;;;22.50;53.30;;;;;;4977892;28;20755;-62
2022/05/14 17:15:28;;;;;;;0.97;0.97;;;22.40;52.80;;;;;;4974939;28;20407;-62
2022/05/14 17:17:55;;;;;;;0.80;0.80;;;22.50;52.70;;;;;;4974749;28;20415;-62
2022/05/14 17:20:24;;;;;;;1.80;0.90;;;22.40;53.00;;;;;;4974530;28;20459;-62
2022/05/14 17:22:49;;;;;;;1.30;1.20;;;22.40;52.80;;;;;;4983029;28;20401;-62
2022/05/14 17:25:15;;;;;;;1.43;1.33;;;22.40;53.10;;;;;;4994170;28;20403;-62
2022/05/14 17:27:41;;;;;;;1.67;1.17;;;22.40;53.40;;;;;;4994212;28;20182;-63
2022/05/14 17:30:10;;;;;;;0.80;0.80;;;22.40;53.10;;;;;;4994123;28;20385;-63
2022/05/14 17:32:36;;;;;;;1.10;1.03;;;22.40;52.70;;;;;;4993591;28;20904;-62